San Diego International Airport
KSAN : now visible

Airfield :











YOU CAN JOIN US ON...

 
LOGIN :

Register | Disclaimer

   EN    FR    IT 

 









Legend :    VFR   Marginal VFR   IFR   Intensive IFR   Very Intensive IFR
Visi :
Ceiling :
>= 8 km
>= 3000ft
5 to 8 km
1000 to 3000 ft
1500m to 5 km
500 to 1000 ft
800 to 1500m
200 to 500 ft
< 800m
< 200 ft
Symbols :   Thunderstorms  Fog  Heavy snow  Heavy precipitations  Wind > 20 kt






- Airport Elevation : 17 ft
- IATA code : SAN


KSAN - San Diego International

CURRENT METAR :
  • 280351Z VRB03KT 10SM OVC011 19/15 A2997 RMK AO2 SLP147 T01890150

EXPIRED METARs :
  • 280306Z 27006KT 10SM BKN012 19/15 A2995 RMK AO2 T01940150
  • 280251Z 28005KT 10SM SCT012 19/15 A2995 RMK AO2 SLP141 T01940150 53010
  • 280151Z 30006KT 10SM SCT012 20/15 A2993 RMK AO2 SLP134 T02000150

TAF KSAN
Valid from the 28 at 01:00 until the 29 at 06:00 UTC


280116Z 2801/2906 29007KT P6SM FEW012
FM280300 VRB04KT P6SM BKN012
FM281000 VRB04KT P6SM OVC008
FM281400 VRB04KT P6SM BKN010
FM281800 28009KT P6SM SCT012
FM290200 VRB04KT P6SM OVC012
KZLA FIR / North America



MET'MAP, your aeronautical weather chart ! - Copyright ORBIFLY December 2007 - Disclaimer

ORBIFLY MET'MAP TEAM :

Programming & Development : Alexandra Zaïnal
Concept & original design : Baudouin d'Aumeries
Assistance for programming : Marc-Olivier Méhu
Technical & hardware support : Manuel Goepfert

Contact : metmap@orbifly.com




SOURCES & CREDITS :

   NOAA       Earth
Advisory